createdAt,value
2023-04-18T00:08:07.895Z,4.9
2023-04-18T00:27:19.230Z,5
2023-04-18T00:46:31.270Z,4.8
2023-04-18T01:05:57.962Z,4.7
2023-04-18T01:24:56.977Z,4.5
2023-04-18T01:44:09.221Z,4.5
2023-04-18T02:03:21.410Z,4.4
2023-04-18T02:22:32.824Z,4.7
2023-04-18T02:41:45.187Z,4.6
2023-04-18T03:00:56.332Z,4.3
2023-04-18T03:20:05.591Z,4.4
2023-04-18T03:39:15.450Z,4.5
2023-04-18T03:58:27.587Z,4.5
2023-04-18T04:17:40.280Z,4.5
2023-04-18T04:36:47.565Z,4.5
2023-04-18T04:55:59.341Z,4.5
2023-04-18T05:15:12.226Z,5.1
2023-04-18T05:34:25.523Z,5.4
2023-04-18T05:53:38.604Z,5.6
2023-04-18T06:12:53.896Z,5.9
2023-04-18T06:32:08.354Z,5.7
2023-04-18T06:51:20.219Z,6.2
2023-04-18T07:10:35.044Z,6.2
2023-04-18T07:29:45.596Z,6.2
2023-04-18T07:49:00.302Z,6
2023-04-18T08:08:11.475Z,6
2023-04-18T08:27:23.359Z,6.4
2023-04-18T08:46:36.774Z,6.3
2023-04-18T09:05:53.023Z,7.5
2023-04-18T09:25:17.480Z,7.3
2023-04-18T09:44:30.287Z,7.3
2023-04-18T10:03:43.690Z,7.5
2023-04-18T10:22:50.826Z,7.5
2023-04-18T10:42:03.045Z,7.4
2023-04-18T11:01:16.001Z,7.5
2023-04-18T11:20:31.429Z,7.7
2023-04-18T11:39:44.956Z,8.8
2023-04-18T11:58:57.824Z,8.1
2023-04-18T12:18:09.359Z,7.8
2023-04-18T12:37:19.602Z,8.3
2023-04-18T12:56:33.990Z,8.1
2023-04-18T13:15:43.046Z,8
2023-04-18T13:34:50.347Z,7.9
2023-04-18T13:54:02.873Z,7.8
2023-04-18T14:13:18.313Z,7.7
2023-04-18T14:32:30.378Z,7.4
2023-04-18T14:51:41.074Z,7.7
2023-04-18T15:10:53.358Z,7.4
2023-04-18T15:30:04.221Z,6.9
2023-04-18T15:49:14.304Z,6.9
2023-04-18T16:08:28.150Z,6.7
2023-04-18T16:27:38.268Z,7.6
2023-04-18T16:46:47.569Z,7.2
2023-04-18T17:05:57.487Z,7.2
2023-04-18T17:25:10.150Z,7.3
2023-04-18T17:44:21.276Z,6.8
2023-04-18T18:03:31.650Z,6.8
2023-04-18T18:22:43.100Z,7.2
2023-04-18T18:41:52.655Z,7.3
2023-04-18T19:01:05.673Z,7.3
2023-04-18T19:20:17.203Z,7.2
2023-04-18T19:39:25.994Z,7.1
2023-04-18T19:58:38.013Z,7.4
2023-04-18T20:17:50.706Z,8
2023-04-18T20:37:03.476Z,7.7
2023-04-18T20:56:13.850Z,7.5
2023-04-18T21:15:27.721Z,7.5
2023-04-18T21:34:36.803Z,7.6
2023-04-18T21:53:46.268Z,7.8
2023-04-18T22:12:57.368Z,7.8
2023-04-18T22:32:09.131Z,8
2023-04-18T22:51:20.829Z,8.1
2023-04-18T23:10:34.051Z,8
2023-04-18T23:29:45.107Z,8.3
2023-04-18T23:48:56.466Z,8.3
